Time;durP1;ratioP1;P1;durP2;ratioP2;P2;SDS_P1;SDS_P2;PMS_P1;PMS_P2;Temp;Humidity;BMP_temperature;BMP_pressure;BME280_temperature;BME280_humidity;BME280_pressure;Samples;Min_cycle;Max_cycle;Signal;HPM_P1;HPM_P2
2022/03/19 00:00:17;;;;;;;5.50;3.15;;;;;;;;;;1619501;30;21918;-64
2022/03/19 00:01:10;;;;;;;8.93;3.60;;;;;;;;;;1622241;30;22278;-64
2022/03/19 00:02:02;;;;;;;4.80;3.60;;;;;;;;;;1620045;30;21980;-63
2022/03/19 00:02:54;;;;;;;10.73;3.33;;;;;;;;;;1623430;30;21826;-63
2022/03/19 00:03:46;;;;;;;6.00;3.05;;;;;;;;;;1618460;30;22129;-64
2022/03/19 00:04:38;;;;;;;3.28;3.03;;;;;;;;;;1620430;30;21913;-64
2022/03/19 00:05:30;;;;;;;3.70;3.08;;;;;;;;;;1618243;30;21874;-64
2022/03/19 00:06:22;;;;;;;3.10;2.75;;;;;;;;;;1622345;30;22471;-64
2022/03/19 00:07:15;;;;;;;11.02;3.35;;;;;;;;;;1621925;30;22188;-64
2022/03/19 00:08:08;;;;;;;3.25;2.78;;;;;;;;;;1621382;30;21764;-64
2022/03/19 00:08:59;;;;;;;3.42;3.10;;;;;;;;;;1618521;30;21666;-63
2022/03/19 00:09:51;;;;;;;4.60;3.40;;;;;;;;;;1619683;30;22029;-63
2022/03/19 00:10:43;;;;;;;3.33;2.92;;;;;;;;;;1617478;30;21862;-62
2022/03/19 00:11:35;;;;;;;3.80;2.95;;;;;;;;;;1618957;30;21636;-63
2022/03/19 00:12:26;;;;;;;5.00;2.50;;;;;;;;;;1617995;30;21861;-63
2022/03/19 00:13:19;;;;;;;3.08;2.72;;;;;;;;;;1618370;30;21639;-62
2022/03/19 00:14:12;;;;;;;6.75;3.05;;;;;;;;;;1620264;30;21663;-63
2022/03/19 00:15:05;;;;;;;3.58;3.00;;;;;;;;;;1619320;30;22056;-62
2022/03/19 00:15:56;;;;;;;7.00;3.53;;;;;;;;;;1619534;30;21602;-63
2022/03/19 00:16:49;;;;;;;3.75;2.85;;;;;;;;;;1619882;30;22095;-63
2022/03/19 00:17:40;;;;;;;3.05;2.83;;;;;;;;;;1621423;30;22104;-63
2022/03/19 00:18:32;;;;;;;3.15;2.90;;;;;;;;;;1619635;30;22596;-63
2022/03/19 00:19:24;;;;;;;3.50;2.90;;;;;;;;;;1618160;30;22139;-63
2022/03/19 00:20:16;;;;;;;4.90;2.67;;;;;;;;;;1622170;30;21632;-63
2022/03/19 00:21:08;;;;;;;3.45;3.15;;;;;;;;;;1617260;30;21648;-63
2022/03/19 00:22:00;;;;;;;3.28;2.70;;;;;;;;;;1619588;30;21873;-63
2022/03/19 00:22:53;;;;;;;4.60;2.78;;;;;;;;;;1619833;30;21616;-63
2022/03/19 00:23:45;;;;;;;3.25;3.00;;;;;;;;;;1620211;30;21567;-63
2022/03/19 00:24:37;;;;;;;4.10;3.17;;;;;;;;;;1613794;30;21615;-63
2022/03/19 00:25:29;;;;;;;3.53;2.63;;;;;;;;;;1619111;30;21686;-63
2022/03/19 00:26:20;;;;;;;7.70;2.95;;;;;;;;;;1623027;30;21593;-63
2022/03/19 00:27:13;;;;;;;6.00;2.58;;;;;;;;;;1621897;30;21594;-63
2022/03/19 00:28:04;;;;;;;3.75;2.85;;;;;;;;;;1622014;30;21743;-63
2022/03/19 00:28:56;;;;;;;4.88;2.58;;;;;;;;;;1620082;30;21653;-63
2022/03/19 00:29:48;;;;;;;3.08;2.88;;;;;;;;;;1619130;30;21585;-62
2022/03/19 00:30:39;;;;;;;5.07;2.75;;;;;;;;;;1621194;30;21583;-62
2022/03/19 00:31:32;;;;;;;3.53;2.80;;;;;;;;;;1618948;30;21596;-62
2022/03/19 00:32:23;;;;;;;4.53;3.13;;;;;;;;;;1622209;30;21815;-62
2022/03/19 00:33:15;;;;;;;5.43;2.67;;;;;;;;;;1617976;30;21731;-62
2022/03/19 00:34:07;;;;;;;3.05;2.58;;;;;;;;;;1618674;30;21685;-64
2022/03/19 00:34:59;;;;;;;2.72;2.42;;;;;;;;;;1620660;30;23194;-63
2022/03/19 00:35:50;;;;;;;2.38;2.17;;;;;;;;;;1620491;30;22095;-63
2022/03/19 00:36:43;;;;;;;5.40;2.30;;;;;;;;;;1618482;30;21814;-63
2022/03/19 00:37:43;;;;;;;2.58;2.38;;;;;;;;;;1620384;30;21725;-63
2022/03/19 00:38:37;;;;;;;3.35;2.63;;;;;;;;;;1621454;30;21645;-63
2022/03/19 00:39:28;;;;;;;3.05;2.42;;;;;;;;;;1622635;30;21607;-63
2022/03/19 00:40:23;;;;;;;5.32;2.83;;;;;;;;;;1622943;30;21664;-62
2022/03/19 00:41:14;;;;;;;2.85;2.65;;;;;;;;;;1618777;30;22603;-64
2022/03/19 00:42:07;;;;;;;2.60;2.40;;;;;;;;;;1622460;30;22262;-63
2022/03/19 00:42:58;;;;;;;4.63;3.00;;;;;;;;;;1620448;30;22553;-62
2022/03/19 00:43:51;;;;;;;4.72;3.13;;;;;;;;;;1617938;30;21975;-63
2022/03/19 00:44:44;;;;;;;9.30;3.40;;;;;;;;;;1618218;30;21594;-63
2022/03/19 00:45:36;;;;;;;3.85;2.35;;;;;;;;;;1617183;30;22472;-63
2022/03/19 00:46:27;;;;;;;2.75;2.55;;;;;;;;;;1621432;30;21560;-62
2022/03/19 00:47:20;;;;;;;4.30;2.42;;;;;;;;;;1620469;30;21646;-62
2022/03/19 00:48:11;;;;;;;3.20;2.85;;;;;;;;;;1618096;30;22353;-62
2022/03/19 00:49:03;;;;;;;4.95;3.00;;;;;;;;;;1623037;30;21928;-62
2022/03/19 00:49:54;;;;;;;7.05;2.90;;;;;;;;;;1619789;30;22334;-62
2022/03/19 00:50:47;;;;;;;3.72;2.63;;;;;;;;;;1619565;30;22001;-62
2022/03/19 00:51:39;;;;;;;4.38;2.38;;;;;;;;;;1620466;30;21969;-63
2022/03/19 00:52:31;;;;;;;8.75;2.80;;;;;;;;;;1621159;30;21825;-63
2022/03/19 00:53:24;;;;;;;3.55;2.90;;;;;;;;;;1622558;30;21540;-63
2022/03/19 00:54:16;;;;;;;5.30;3.00;;;;;;;;;;1620120;30;21751;-64
2022/03/19 00:55:10;;;;;;;3.47;2.45;;;;;;;;;;1624257;30;21667;-63
2022/03/19 00:56:01;;;;;;;4.00;3.28;;;;;;;;;;1619135;30;22597;-63
2022/03/19 00:56:53;;;;;;;8.07;2.35;;;;;;;;;;1623958;30;22262;-62
2022/03/19 00:57:46;;;;;;;4.22;2.75;;;;;;;;;;1622559;30;22119;-62
2022/03/19 00:58:39;;;;;;;5.10;2.53;;;;;;;;;;1619900;30;22130;-62
2022/03/19 00:59:30;;;;;;;4.43;2.92;;;;;;;;;;1621403;30;22054;-63
2022/03/19 01:00:26;;;;;;;3.83;2.60;;;;;;;;;;1620818;30;22317;-63
2022/03/19 01:01:17;;;;;;;2.45;1.88;;;;;;;;;;1622116;30;21786;-63
2022/03/19 01:02:09;;;;;;;5.18;2.35;;;;;;;;;;1619040;30;21786;-62
2022/03/19 01:03:02;;;;;;;3.92;2.75;;;;;;;;;;1621576;30;22009;-63
2022/03/19 01:03:54;;;;;;;4.40;2.70;;;;;;;;;;1619033;30;22276;-62
2022/03/19 01:04:47;;;;;;;3.65;3.35;;;;;;;;;;1617323;30;22732;-63
2022/03/19 01:05:38;;;;;;;2.60;2.40;;;;;;;;;;1620365;30;21609;-63
2022/03/19 01:06:30;;;;;;;6.60;2.65;;;;;;;;;;1617527;30;21670;-63
2022/03/19 01:07:22;;;;;;;4.95;2.25;;;;;;;;;;1616182;30;21707;-63
2022/03/19 01:08:14;;;;;;;3.13;2.50;;;;;;;;;;1619269;30;21956;-63
2022/03/19 01:09:05;;;;;;;6.25;2.45;;;;;;;;;;1617899;30;21723;-63
2022/03/19 01:09:59;;;;;;;3.70;2.53;;;;;;;;;;1618653;30;21741;-64
2022/03/19 01:10:51;;;;;;;2.03;1.90;;;;;;;;;;1616597;30;22280;-63
2022/03/19 01:11:43;;;;;;;4.80;2.63;;;;;;;;;;1617648;30;22409;-63
2022/03/19 01:12:35;;;;;;;3.05;2.80;;;;;;;;;;1619532;30;21582;-62
2022/03/19 01:13:27;;;;;;;7.70;2.55;;;;;;;;;;1623213;30;21554;-63
2022/03/19 01:14:18;;;;;;;3.70;2.58;;;;;;;;;;1618845;30;22424;-63
2022/03/19 01:15:11;;;;;;;8.38;2.70;;;;;;;;;;1619327;30;21626;-64
2022/03/19 01:16:03;;;;;;;3.30;2.78;;;;;;;;;;1620390;30;21603;-63
2022/03/19 01:16:55;;;;;;;3.72;2.53;;;;;;;;;;1619023;30;22005;-64
2022/03/19 01:17:47;;;;;;;5.95;2.75;;;;;;;;;;1618096;30;21659;-63
2022/03/19 01:18:40;;;;;;;5.05;2.67;;;;;;;;;;1622396;30;21727;-64
2022/03/19 01:20:43;;;;;;;2.70;2.50;;;;;;;;;;1622889;30;22169;-63
2022/03/19 01:21:35;;;;;;;6.38;2.55;;;;;;;;;;1619467;30;22406;-63
2022/03/19 01:22:28;;;;;;;2.50;2.10;;;;;;;;;;1623793;30;21986;-64
2022/03/19 01:23:21;;;;;;;3.67;2.58;;;;;;;;;;1619484;30;21634;-63
2022/03/19 01:24:12;;;;;;;5.07;2.72;;;;;;;;;;1621038;30;21613;-62
2022/03/19 01:25:08;;;;;;;4.57;2.28;;;;;;;;;;1619328;30;21999;-62
2022/03/19 01:26:00;;;;;;;3.85;2.83;;;;;;;;;;1619801;30;22080;-63
2022/03/19 01:26:53;;;;;;;2.60;2.40;;;;;;;;;;1617281;30;21603;-63
2022/03/19 01:27:46;;;;;;;7.35;2.70;;;;;;;;;;1618831;30;21602;-64
2022/03/19 01:28:38;;;;;;;3.63;2.53;;;;;;;;;;1621038;30;22542;-63
2022/03/19 01:29:30;;;;;;;3.25;2.58;;;;;;;;;;1619927;29;22641;-64
2022/03/19 01:30:24;;;;;;;3.22;2.92;;;;;;;;;;1619583;30;21687;-63
2022/03/19 01:31:15;;;;;;;4.35;2.67;;;;;;;;;;1619130;30;21628;-63
2022/03/19 01:32:09;;;;;;;3.40;2.58;;;;;;;;;;1621517;30;21717;-63
2022/03/19 01:33:00;;;;;;;2.67;2.47;;;;;;;;;;1619035;30;21588;-64
2022/03/19 01:33:52;;;;;;;8.52;2.30;;;;;;;;;;1618842;30;21812;-63
2022/03/19 01:34:44;;;;;;;3.40;2.85;;;;;;;;;;1620393;30;22329;-64
2022/03/19 01:35:36;;;;;;;2.55;2.03;;;;;;;;;;1617927;30;21725;-63
2022/03/19 01:36:27;;;;;;;6.25;2.50;;;;;;;;;;1619888;30;21699;-64
2022/03/19 01:37:20;;;;;;;3.10;2.55;;;;;;;;;;1620645;30;22532;-64
2022/03/19 01:38:11;;;;;;;6.88;2.63;;;;;;;;;;1621481;30;21627;-63
2022/03/19 01:39:03;;;;;;;2.97;2.60;;;;;;;;;;1620012;30;21585;-64
2022/03/19 01:39:55;;;;;;;2.67;2.13;;;;;;;;;;1623497;30;21940;-63
2022/03/19 01:40:49;;;;;;;2.67;2.47;;;;;;;;;;1619443;30;21644;-63
2022/03/19 01:41:41;;;;;;;2.88;2.67;;;;;;;;;;1617158;30;21727;-62
2022/03/19 01:42:36;;;;;;;4.38;2.70;;;;;;;;;;1617042;30;21877;-62
2022/03/19 01:43:27;;;;;;;2.42;2.17;;;;;;;;;;1620035;30;21592;-62
2022/03/19 01:44:20;;;;;;;4.60;2.58;;;;;;;;;;1620689;30;21567;-63
2022/03/19 01:45:14;;;;;;;7.18;2.60;;;;;;;;;;1618823;30;21592;-62
2022/03/19 01:46:07;;;;;;;2.35;2.15;;;;;;;;;;1622913;30;23033;-63
2022/03/19 01:47:00;;;;;;;4.63;2.33;;;;;;;;;;1620148;30;21639;-63
2022/03/19 01:47:53;;;;;;;3.60;2.40;;;;;;;;;;1618804;30;22566;-62
2022/03/19 01:48:44;;;;;;;5.35;2.60;;;;;;;;;;1620866;30;21572;-63
2022/03/19 01:49:37;;;;;;;4.60;2.50;;;;;;;;;;1622283;30;21601;-63
2022/03/19 01:50:28;;;;;;;2.78;2.58;;;;;;;;;;1620646;30;22557;-63
2022/03/19 01:51:20;;;;;;;2.58;2.40;;;;;;;;;;1621219;30;21679;-63
2022/03/19 01:52:12;;;;;;;2.53;2.33;;;;;;;;;;1619638;30;21587;-63
2022/03/19 01:53:05;;;;;;;3.67;2.70;;;;;;;;;;1619598;30;21758;-62
2022/03/19 01:53:56;;;;;;;5.68;2.45;;;;;;;;;;1618831;30;21597;-63
2022/03/19 01:54:52;;;;;;;4.28;2.67;;;;;;;;;;1619088;30;21946;-63
2022/03/19 01:55:43;;;;;;;2.95;2.67;;;;;;;;;;1618192;30;21751;-63
2022/03/19 01:56:37;;;;;;;3.95;2.75;;;;;;;;;;1618394;30;21612;-63
2022/03/19 01:57:34;;;;;;;2.88;2.42;;;;;;;;;;1618572;30;21628;-63
2022/03/19 01:58:26;;;;;;;3.25;2.50;;;;;;;;;;1616724;30;21600;-63
2022/03/19 01:59:18;;;;;;;3.58;2.00;;;;;;;;;;1620145;30;21672;-64
2022/03/19 02:00:14;;;;;;;3.80;2.33;;;;;;;;;;1621670;30;21657;-63
2022/03/19 02:01:07;;;;;;;3.13;2.50;;;;;;;;;;1619080;30;21633;-63
2022/03/19 02:02:00;;;;;;;6.75;2.88;;;;;;;;;;1619866;30;21718;-62
2022/03/19 02:02:55;;;;;;;6.20;2.47;;;;;;;;;;1619001;30;22653;-63
2022/03/19 02:03:47;;;;;;;2.95;2.63;;;;;;;;;;1616653;30;21681;-64
2022/03/19 02:04:41;;;;;;;3.13;2.35;;;;;;;;;;1618523;30;21682;-64
2022/03/19 02:05:34;;;;;;;4.55;2.65;;;;;;;;;;1617596;30;22653;-64
2022/03/19 02:06:26;;;;;;;2.45;2.20;;;;;;;;;;1614111;30;23066;-64
2022/03/19 02:07:18;;;;;;;3.38;2.40;;;;;;;;;;1620063;30;21995;-64
2022/03/19 02:08:10;;;;;;;4.72;2.90;;;;;;;;;;1620123;30;21997;-63
2022/03/19 02:09:02;;;;;;;2.80;2.60;;;;;;;;;;1621911;30;22578;-64
2022/03/19 02:09:57;;;;;;;3.50;2.45;;;;;;;;;;1619332;30;21964;-64
2022/03/19 02:10:49;;;;;;;2.90;2.70;;;;;;;;;;1618157;30;21934;-63
2022/03/19 02:11:42;;;;;;;3.88;2.50;;;;;;;;;;1617976;30;21980;-64
2022/03/19 02:12:34;;;;;;;3.13;2.78;;;;;;;;;;1621248;30;21541;-62
2022/03/19 02:13:26;;;;;;;3.65;2.70;;;;;;;;;;1617544;30;22543;-63
2022/03/19 02:14:18;;;;;;;2.83;2.25;;;;;;;;;;1618766;30;21825;-63
2022/03/19 02:15:12;;;;;;;2.92;2.53;;;;;;;;;;1621058;30;22102;-63
2022/03/19 02:16:05;;;;;;;2.42;2.20;;;;;;;;;;1618787;30;22114;-63
2022/03/19 02:16:56;;;;;;;2.88;2.65;;;;;;;;;;1620242;30;21544;-62
2022/03/19 02:17:48;;;;;;;4.53;2.25;;;;;;;;;;1619349;30;22162;-63
2022/03/19 02:18:40;;;;;;;3.47;2.47;;;;;;;;;;1618786;30;21626;-63
2022/03/19 02:19:32;;;;;;;3.53;2.47;;;;;;;;;;1618711;30;22219;-63
2022/03/19 02:20:24;;;;;;;3.92;2.60;;;;;;;;;;1619323;30;21601;-63
2022/03/19 02:21:16;;;;;;;2.03;1.92;;;;;;;;;;1619796;30;21577;-63
2022/03/19 02:22:07;;;;;;;5.78;2.55;;;;;;;;;;1619121;30;22472;-62
2022/03/19 02:25:36;;;;;;;;;;;;;;;;;;1618021;30;22018;-63
2022/03/19 02:26:28;;;;;;;2.50;2.30;;;;;;;;;;1618556;30;21885;-63
2022/03/19 02:27:20;;;;;;;5.68;2.30;;;;;;;;;;1619219;30;21808;-62
2022/03/19 02:28:11;;;;;;;2.60;2.40;;;;;;;;;;1623263;30;21695;-62
2022/03/19 02:29:03;;;;;;;2.42;2.22;;;;;;;;;;1618004;30;22402;-63
2022/03/19 02:29:56;;;;;;;2.70;2.50;;;;;;;;;;1618631;30;21561;-63
2022/03/19 02:30:49;;;;;;;2.50;2.30;;;;;;;;;;1619755;30;24956;-63
2022/03/19 02:31:43;;;;;;;2.63;2.42;;;;;;;;;;1622232;30;21600;-63
2022/03/19 02:32:36;;;;;;;2.58;2.38;;;;;;;;;;1618483;30;22714;-63
2022/03/19 02:33:27;;;;;;;3.05;2.75;;;;;;;;;;1617708;30;21613;-63
2022/03/19 02:34:19;;;;;;;3.17;2.50;;;;;;;;;;1620107;30;22039;-63
2022/03/19 02:35:11;;;;;;;2.15;1.90;;;;;;;;;;1618276;30;21656;-63
2022/03/19 02:36:04;;;;;;;3.47;2.33;;;;;;;;;;1618422;30;21989;-63
2022/03/19 02:36:56;;;;;;;2.53;2.33;;;;;;;;;;1621412;30;21751;-61
2022/03/19 02:37:51;;;;;;;3.70;2.58;;;;;;;;;;1620415;30;21661;-63
2022/03/19 02:38:45;;;;;;;2.50;2.30;;;;;;;;;;1617388;30;21962;-62
2022/03/19 02:39:38;;;;;;;2.90;2.00;;;;;;;;;;1621408;30;22735;-63
2022/03/19 02:40:29;;;;;;;2.60;2.40;;;;;;;;;;1620774;30;22279;-63
2022/03/19 02:41:21;;;;;;;2.88;2.67;;;;;;;;;;1620987;30;21612;-63
2022/03/19 02:42:17;;;;;;;3.72;2.67;;;;;;;;;;1621564;29;22089;-64
2022/03/19 02:43:09;;;;;;;4.63;2.83;;;;;;;;;;1617177;30;21783;-64
2022/03/19 02:44:01;;;;;;;3.28;2.30;;;;;;;;;;1615663;30;22077;-64
2022/03/19 02:44:53;;;;;;;4.00;2.30;;;;;;;;;;1619823;30;21663;-64
2022/03/19 02:45:47;;;;;;;2.60;2.40;;;;;;;;;;1620834;30;21977;-62
2022/03/19 02:46:42;;;;;;;4.70;2.72;;;;;;;;;;1619838;30;21952;-64
2022/03/19 02:47:34;;;;;;;2.67;2.45;;;;;;;;;;1621593;30;22623;-64
2022/03/19 02:48:26;;;;;;;3.05;2.85;;;;;;;;;;1617054;30;21720;-64
2022/03/19 02:49:18;;;;;;;2.90;2.33;;;;;;;;;;1621490;30;21868;-64
2022/03/19 02:50:11;;;;;;;2.97;2.78;;;;;;;;;;1617662;30;21780;-64
2022/03/19 02:51:04;;;;;;;2.88;2.30;;;;;;;;;;1616593;30;21605;-64
2022/03/19 02:51:57;;;;;;;2.75;2.47;;;;;;;;;;1616450;30;21686;-62
2022/03/19 02:52:49;;;;;;;2.83;2.63;;;;;;;;;;1619562;30;22452;-63
2022/03/19 02:53:42;;;;;;;2.53;2.33;;;;;;;;;;1617336;30;21713;-63
2022/03/19 02:54:35;;;;;;;2.63;2.42;;;;;;;;;;1619941;30;22185;-63
2022/03/19 02:55:32;;;;;;;2.85;2.10;;;;;;;;;;1618779;30;21774;-62
2022/03/19 02:56:23;;;;;;;4.72;2.17;;;;;;;;;;1618322;30;21621;-62
2022/03/19 02:57:15;;;;;;;6.68;2.78;;;;;;;;;;1619003;30;21787;-63
2022/03/19 02:58:08;;;;;;;2.50;2.30;;;;;;;;;;1617488;30;22029;-63
2022/03/19 02:59:07;;;;;;;3.60;2.60;;;;;;;;;;1616812;30;21647;-63
2022/03/19 02:59:58;;;;;;;3.42;2.65;;;;;;;;;;1620842;30;21560;-63
2022/03/19 03:00:51;;;;;;;4.25;2.85;;;;;;;;;;1618248;30;21844;-63
2022/03/19 03:01:43;;;;;;;4.32;2.70;;;;;;;;;;1618029;30;21652;-63
2022/03/19 03:02:34;;;;;;;6.85;3.05;;;;;;;;;;1617512;30;21619;-62
2022/03/19 03:03:26;;;;;;;10.23;3.05;;;;;;;;;;1619889;30;22411;-62
2022/03/19 03:04:18;;;;;;;5.85;2.30;;;;;;;;;;1619874;30;21713;-63
2022/03/19 03:05:13;;;;;;;3.10;2.78;;;;;;;;;;1617465;30;21623;-63
2022/03/19 03:06:05;;;;;;;3.47;2.35;;;;;;;;;;1619828;30;22289;-63
2022/03/19 03:07:02;;;;;;;5.70;2.80;;;;;;;;;;1617007;30;21741;-63
2022/03/19 03:07:53;;;;;;;3.65;2.63;;;;;;;;;;1618769;30;21613;-61
2022/03/19 03:08:45;;;;;;;6.60;2.75;;;;;;;;;;1618456;30;22629;-62
2022/03/19 03:09:38;;;;;;;3.38;2.47;;;;;;;;;;1617180;30;22029;-62
2022/03/19 03:10:32;;;;;;;3.65;2.50;;;;;;;;;;1620919;30;22124;-62
2022/03/19 03:11:23;;;;;;;3.08;2.47;;;;;;;;;;1616801;30;22678;-63
2022/03/19 03:12:15;;;;;;;2.67;2.47;;;;;;;;;;1619461;30;22732;-62
2022/03/19 03:13:07;;;;;;;4.00;2.60;;;;;;;;;;1618819;30;21795;-62
2022/03/19 03:13:59;;;;;;;3.35;2.83;;;;;;;;;;1620903;30;22499;-61
2022/03/19 03:14:51;;;;;;;2.70;2.50;;;;;;;;;;1619186;30;21625;-62
2022/03/19 03:15:43;;;;;;;9.60;3.05;;;;;;;;;;1619714;30;21593;-63
2022/03/19 03:16:35;;;;;;;2.80;2.55;;;;;;;;;;1618224;30;21683;-62
2022/03/19 03:17:29;;;;;;;2.85;2.65;;;;;;;;;;1617444;30;21600;-62
2022/03/19 03:18:20;;;;;;;5.88;2.10;;;;;;;;;;1620614;30;22244;-64
2022/03/19 03:19:13;;;;;;;4.78;2.60;;;;;;;;;;1621853;30;21777;-65
2022/03/19 03:20:07;;;;;;;6.20;2.42;;;;;;;;;;1620459;30;21694;-64
2022/03/19 03:21:00;;;;;;;2.72;2.53;;;;;;;;;;1617737;30;21619;-64
2022/03/19 03:21:51;;;;;;;11.25;2.60;;;;;;;;;;1617558;30;21820;-64
2022/03/19 03:22:44;;;;;;;3.83;2.53;;;;;;;;;;1619157;30;21597;-61
2022/03/19 03:23:35;;;;;;;4.38;2.05;;;;;;;;;;1618504;30;21601;-63
2022/03/19 03:24:29;;;;;;;4.32;2.63;;;;;;;;;;1618559;30;21638;-63
2022/03/19 03:25:22;;;;;;;2.67;2.38;;;;;;;;;;1622176;30;21727;-64
2022/03/19 03:26:14;;;;;;;4.50;2.78;;;;;;;;;;1616582;30;22651;-63
2022/03/19 03:27:05;;;;;;;9.45;3.00;;;;;;;;;;1620437;29;22076;-62
2022/03/19 03:27:57;;;;;;;7.10;2.83;;;;;;;;;;1622191;30;22396;-63
2022/03/19 03:28:49;;;;;;;3.28;2.55;;;;;;;;;;1620234;30;21867;-64
2022/03/19 03:29:42;;;;;;;3.03;2.70;;;;;;;;;;1617111;30;21788;-64
2022/03/19 03:30:33;;;;;;;7.15;3.00;;;;;;;;;;1616830;30;21728;-64
2022/03/19 03:31:26;;;;;;;2.95;2.75;;;;;;;;;;1620702;30;22260;-64
2022/03/19 03:32:17;;;;;;;4.25;2.65;;;;;;;;;;1617400;30;21760;-64
2022/03/19 03:33:09;;;;;;;5.22;2.50;;;;;;;;;;1618443;30;22172;-64
2022/03/19 03:34:02;;;;;;;5.57;2.47;;;;;;;;;;1619279;30;21657;-64
2022/03/19 03:34:54;;;;;;;4.53;2.65;;;;;;;;;;1617091;30;21613;-64
2022/03/19 03:35:45;;;;;;;6.15;2.90;;;;;;;;;;1620791;30;22678;-64
2022/03/19 03:36:38;;;;;;;3.40;2.40;;;;;;;;;;1618007;30;21685;-64
2022/03/19 03:37:29;;;;;;;5.35;2.42;;;;;;;;;;1617943;30;22462;-63
2022/03/19 03:38:22;;;;;;;3.58;2.50;;;;;;;;;;1618277;30;22142;-64
2022/03/19 03:39:13;;;;;;;3.83;2.40;;;;;;;;;;1619373;30;21859;-63
2022/03/19 03:40:08;;;;;;;2.90;2.60;;;;;;;;;;1618663;30;22596;-63
2022/03/19 03:41:00;;;;;;;2.60;2.40;;;;;;;;;;1616995;30;22528;-63
2022/03/19 03:41:53;;;;;;;7.55;2.17;;;;;;;;;;1617356;30;22294;-64
2022/03/19 03:42:44;;;;;;;3.97;2.95;;;;;;;;;;1616575;30;22482;-63
2022/03/19 03:43:36;;;;;;;4.38;2.55;;;;;;;;;;1618946;30;21609;-64
2022/03/19 03:44:28;;;;;;;5.78;2.72;;;;;;;;;;1620799;30;21703;-63
2022/03/19 03:45:20;;;;;;;8.45;2.58;;;;;;;;;;1620993;30;21571;-63
2022/03/19 03:46:12;;;;;;;4.25;2.80;;;;;;;;;;1620363;30;21915;-63
2022/03/19 03:47:05;;;;;;;2.75;2.55;;;;;;;;;;1618558;30;21696;-64
2022/03/19 03:47:56;;;;;;;4.57;2.72;;;;;;;;;;1619308;30;21611;-64
2022/03/19 03:48:49;;;;;;;3.42;2.80;;;;;;;;;;1616630;30;22599;-63
2022/03/19 03:49:40;;;;;;;2.78;2.50;;;;;;;;;;1616917;30;21648;-63
2022/03/19 03:50:33;;;;;;;4.38;2.60;;;;;;;;;;1618558;30;21637;-62
2022/03/19 03:51:24;;;;;;;6.18;2.80;;;;;;;;;;1618152;30;21593;-64
2022/03/19 03:52:17;;;;;;;3.00;2.60;;;;;;;;;;1618162;30;22555;-64
2022/03/19 03:53:09;;;;;;;4.05;2.83;;;;;;;;;;1616656;30;21609;-64
2022/03/19 03:54:01;;;;;;;5.70;2.95;;;;;;;;;;1617170;30;21565;-64
2022/03/19 03:54:52;;;;;;;3.03;2.72;;;;;;;;;;1619529;30;21864;-65
2022/03/19 03:55:45;;;;;;;3.55;2.97;;;;;;;;;;1617308;30;21795;-64
2022/03/19 03:56:38;;;;;;;3.25;2.97;;;;;;;;;;1617960;30;22571;-63
2022/03/19 03:57:30;;;;;;;3.00;2.80;;;;;;;;;;1618707;30;22320;-64
2022/03/19 03:58:24;;;;;;;5.85;3.15;;;;;;;;;;1616936;30;21976;-64
2022/03/19 03:59:16;;;;;;;3.28;2.70;;;;;;;;;;1617227;30;21609;-63
2022/03/19 04:00:09;;;;;;;3.63;3.33;;;;;;;;;;1619019;30;22249;-63
2022/03/19 04:01:01;;;;;;;3.67;3.05;;;;;;;;;;1615754;30;21779;-63
2022/03/19 04:01:52;;;;;;;4.05;3.22;;;;;;;;;;1617637;30;22538;-64
2022/03/19 04:02:45;;;;;;;8.05;3.60;;;;;;;;;;1618406;30;21646;-64
2022/03/19 04:03:36;;;;;;;14.05;4.03;;;;;;;;;;1617796;30;21721;-64
2022/03/19 04:04:28;;;;;;;10.05;4.00;;;;;;;;;;1617631;30;21827;-64
2022/03/19 04:05:20;;;;;;;17.75;3.17;;;;;;;;;;1622163;30;21551;-63
2022/03/19 04:06:12;;;;;;;11.15;3.25;;;;;;;;;;1612141;30;21601;-64
2022/03/19 04:07:04;;;;;;;5.35;3.88;;;;;;;;;;1616871;30;21620;-63
2022/03/19 04:07:56;;;;;;;4.20;3.42;;;;;;;;;;1618429;30;22363;-63
2022/03/19 04:08:47;;;;;;;4.75;3.47;;;;;;;;;;1618771;30;22051;-63
2022/03/19 04:09:40;;;;;;;13.45;3.65;;;;;;;;;;1618073;30;21717;-64
2022/03/19 04:10:31;;;;;;;13.35;4.15;;;;;;;;;;1619176;30;21750;-64
2022/03/19 04:11:24;;;;;;;4.28;3.50;;;;;;;;;;1620306;30;21604;-64
2022/03/19 04:12:16;;;;;;;5.50;3.22;;;;;;;;;;1620177;30;21607;-64
2022/03/19 04:13:09;;;;;;;9.32;3.60;;;;;;;;;;1618343;30;21736;-64
2022/03/19 04:14:00;;;;;;;7.75;3.60;;;;;;;;;;1620456;30;21664;-64
2022/03/19 04:14:53;;;;;;;12.05;3.58;;;;;;;;;;1620337;30;21589;-64
2022/03/19 04:15:45;;;;;;;4.25;3.58;;;;;;;;;;1620711;30;21613;-64
2022/03/19 04:16:37;;;;;;;3.88;3.42;;;;;;;;;;1620470;30;21697;-64
2022/03/19 04:17:29;;;;;;;4.40;4.00;;;;;;;;;;1619778;30;21676;-63
2022/03/19 04:18:21;;;;;;;10.05;4.57;;;;;;;;;;1617593;30;21606;-63
2022/03/19 04:19:12;;;;;;;11.38;4.15;;;;;;;;;;1620812;30;22018;-64
2022/03/19 04:20:06;;;;;;;4.47;3.97;;;;;;;;;;1618079;30;21998;-64
2022/03/19 04:20:58;;;;;;;7.85;4.15;;;;;;;;;;1618545;30;22194;-63
2022/03/19 04:21:50;;;;;;;4.32;3.88;;;;;;;;;;1620639;30;21626;-64
2022/03/19 04:22:43;;;;;;;4.28;3.88;;;;;;;;;;1618202;30;21634;-63
2022/03/19 04:23:36;;;;;;;5.03;4.38;;;;;;;;;;1619996;30;22308;-64
2022/03/19 04:24:27;;;;;;;5.90;3.95;;;;;;;;;;1620418;30;21795;-64
2022/03/19 04:25:21;;;;;;;6.38;3.83;;;;;;;;;;1620670;30;22518;-64
2022/03/19 04:26:12;;;;;;;12.60;4.50;;;;;;;;;;1618974;30;22468;-64
2022/03/19 04:27:07;;;;;;;11.45;4.38;;;;;;;;;;1619757;30;22433;-63
2022/03/19 04:28:01;;;;;;;9.98;4.10;;;;;;;;;;1620423;30;21852;-64
2022/03/19 04:28:53;;;;;;;9.90;3.90;;;;;;;;;;1618866;30;22009;-64
2022/03/19 04:29:45;;;;;;;4.72;4.05;;;;;;;;;;1617721;30;21655;-64
2022/03/19 04:30:37;;;;;;;5.32;4.88;;;;;;;;;;1620025;30;21605;-63
2022/03/19 04:31:28;;;;;;;6.95;4.32;;;;;;;;;;1619828;30;22453;-64
2022/03/19 04:32:21;;;;;;;5.18;4.72;;;;;;;;;;1619211;30;21667;-64
2022/03/19 04:33:12;;;;;;;5.60;4.50;;;;;;;;;;1618787;30;21831;-64
2022/03/19 04:34:04;;;;;;;6.43;4.38;;;;;;;;;;1621367;30;22779;-63
2022/03/19 04:34:56;;;;;;;7.57;4.55;;;;;;;;;;1619288;30;21742;-63
2022/03/19 04:36:58;;;;;;;7.05;4.75;;;;;;;;;;1620508;30;21954;-64
2022/03/19 04:37:49;;;;;;;8.40;4.63;;;;;;;;;;1620488;30;21613;-63
2022/03/19 04:38:42;;;;;;;5.00;4.60;;;;;;;;;;1617675;30;22160;-64
2022/03/19 04:39:33;;;;;;;6.57;4.22;;;;;;;;;;1618212;30;21826;-63
2022/03/19 04:40:26;;;;;;;6.28;5.00;;;;;;;;;;1619448;30;21791;-64
2022/03/19 04:41:17;;;;;;;11.38;4.82;;;;;;;;;;1620137;30;22009;-63
2022/03/19 04:42:09;;;;;;;4.60;4.20;;;;;;;;;;1618789;30;22347;-64
2022/03/19 04:43:03;;;;;;;5.68;4.65;;;;;;;;;;1618340;30;21689;-64
2022/03/19 04:43:56;;;;;;;4.97;4.57;;;;;;;;;;1621055;30;21921;-63
2022/03/19 04:44:47;;;;;;;10.80;5.45;;;;;;;;;;1618291;30;21687;-64
2022/03/19 04:45:41;;;;;;;6.57;4.80;;;;;;;;;;1619522;30;22481;-64
2022/03/19 04:46:32;;;;;;;11.02;4.78;;;;;;;;;;1617827;30;21620;-64
2022/03/19 04:47:24;;;;;;;7.80;5.32;;;;;;;;;;1617550;30;21706;-64
2022/03/19 04:48:16;;;;;;;5.65;4.53;;;;;;;;;;1618128;30;21759;-65
2022/03/19 04:49:09;;;;;;;6.63;5.57;;;;;;;;;;1620639;30;21793;-64
2022/03/19 04:50:00;;;;;;;6.10;4.95;;;;;;;;;;1618301;30;21758;-64
2022/03/19 04:50:53;;;;;;;5.28;4.35;;;;;;;;;;1618325;30;21628;-64
2022/03/19 04:51:44;;;;;;;6.90;5.15;;;;;;;;;;1619039;30;22493;-64
2022/03/19 04:52:37;;;;;;;5.53;5.00;;;;;;;;;;1619329;30;21660;-63
2022/03/19 04:53:28;;;;;;;5.63;5.00;;;;;;;;;;1619860;30;21618;-63
2022/03/19 04:54:21;;;;;;;6.50;5.30;;;;;;;;;;1618759;29;21810;-62
2022/03/19 04:55:12;;;;;;;12.50;5.10;;;;;;;;;;1619298;30;21835;-63
2022/03/19 04:56:05;;;;;;;5.68;5.07;;;;;;;;;;1620186;30;22751;-63
2022/03/19 04:56:57;;;;;;;9.63;5.40;;;;;;;;;;1616771;30;21618;-64
2022/03/19 04:57:49;;;;;;;4.93;4.63;;;;;;;;;;1622007;30;22221;-63
2022/03/19 04:58:42;;;;;;;4.82;4.53;;;;;;;;;;1621466;30;21651;-63
2022/03/19 04:59:34;;;;;;;5.47;5.07;;;;;;;;;;1619207;30;21630;-64
2022/03/19 05:00:25;;;;;;;5.97;4.50;;;;;;;;;;1617525;30;21955;-63
2022/03/19 05:01:18;;;;;;;5.95;5.28;;;;;;;;;;1619510;30;21587;-63
2022/03/19 05:02:10;;;;;;;5.10;4.63;;;;;;;;;;1621715;30;21938;-62
2022/03/19 05:03:02;;;;;;;4.90;4.60;;;;;;;;;;1619342;30;21581;-62
2022/03/19 05:03:53;;;;;;;12.35;4.78;;;;;;;;;;1622454;30;21967;-62
2022/03/19 05:04:46;;;;;;;6.85;5.22;;;;;;;;;;1621952;30;21996;-62
2022/03/19 05:05:37;;;;;;;5.65;5.22;;;;;;;;;;1620125;30;21603;-64
2022/03/19 05:06:29;;;;;;;6.05;5.55;;;;;;;;;;1619510;30;21617;-64
2022/03/19 05:07:21;;;;;;;5.70;5.20;;;;;;;;;;1621007;30;21933;-63
2022/03/19 05:08:14;;;;;;;6.20;5.70;;;;;;;;;;1620628;30;21864;-64
2022/03/19 05:11:25;;;;;;;7.10;5.45;;;;;;;;;;1622501;30;22256;-62
2022/03/19 05:12:30;;;;;;;6.47;5.88;;;;;;;;;;1617939;30;22876;-62
2022/03/19 05:13:21;;;;;;;5.65;5.20;;;;;;;;;;1613105;30;22418;-63
2022/03/19 05:14:15;;;;;;;6.57;6.00;;;;;;;;;;1618302;30;22315;-63
2022/03/19 05:15:10;;;;;;;6.10;5.55;;;;;;;;;;1618745;30;21663;-63
2022/03/19 05:16:02;;;;;;;6.72;6.07;;;;;;;;;;1620068;30;22105;-62
2022/03/19 05:16:53;;;;;;;10.32;6.10;;;;;;;;;;1616264;30;22063;-62
2022/03/19 05:17:46;;;;;;;9.95;6.32;;;;;;;;;;1619901;30;21600;-63
2022/03/19 05:18:37;;;;;;;6.45;5.95;;;;;;;;;;1620333;30;22024;-63
2022/03/19 05:19:30;;;;;;;6.35;5.85;;;;;;;;;;1620578;30;21736;-63
2022/03/19 05:20:21;;;;;;;6.38;5.82;;;;;;;;;;1620092;30;22055;-63
2022/03/19 05:21:14;;;;;;;5.88;5.38;;;;;;;;;;1618126;30;22398;-63